• Join FlightAware (Why Join?)
  • Login
  • US Flag 
12:36AM EDT


 

Airport Tracker/Info


-or-


 

Live Flight TrackerFlight Track Log ✈ FDX1374 ✈ 17-Jul-2013 ✈ KLCK - KMEM

Flight Track Log - Related Links

Times and Time Zones

All times are in EDT time to prevent confusion due to time zone crossing. See the FDX1374 flight status page for this flight to view local times or setup timezone preferences in your user account.

Time Position Orientation Groundspeed Altitude Reporting Facility
EDT Latitude Longitude Course Direction KTS MPH feet Rate Location/Type
11:40PM 39.7860 -82.9630 222° Southwest 166 191 1,800  Level FlightAware
11:41PM 39.7660 -82.9890 225° Southwest 226 260 3,700 3,840 Climbing FlightAware
11:41PM 39.7590 -83.0020 235° Southwest 246 283 4,000 2,760 Climbing FlightAware
11:41PM 39.7400 -83.0450 240° Southwest 268 308 5,600 3,360 Climbing FlightAware
11:42PM 39.7210 -83.0870 240° Southwest 277 319 7,400 3,600 Climbing FlightAware
11:42PM 39.7100 -83.1160 244° Southwest 282 325 8,500 2,700 Climbing FlightAware
11:43PM 39.6920 -83.1570 240° Southwest 297 342 9,500 1,800 Climbing FlightAware
11:43PM 39.6840 -83.1760 241° Southwest 301 346 9,700 1,980 Climbing FlightAware
11:44PM 39.6500 -83.2460 238° Southwest 325 374 11,400 1,860 Climbing FlightAware
11:44PM 39.6130 -83.2930 224° Southwest 367 422 12,100 2,100 Climbing FlightAware
11:45PM 39.5580 -83.3620 224° Southwest 383 441 14,100 2,520 Climbing FlightAware
11:46PM 39.5050 -83.4270 223° Southwest 402 463 15,700 2,400 Climbing FlightAware
11:46PM 39.4550 -83.4880 223° Southwest 413 475 17,200 2,400 Climbing FlightAware
11:47PM 39.3920 -83.5640 223° Southwest 429 494 18,900 1,440 Climbing FlightAware
11:48PM 39.3000 -83.6750 223° Southwest 438 504 20,000 600 Climbing FlightAware
11:49PM 39.2550 -83.7300 223° Southwest 438 504 20,000  Level FlightAware
11:49PM 39.1930 -83.8040 223° Southwest 438 504 20,000  Level FlightAware
11:50PM 39.1480 -83.8590 223° Southwest 438 504 20,000 4,680 Level FlightAware
11:51PM 39.0160 -84.0220 224° Southwest 482 555 27,100 4,500 Climbing FlightAware
11:52PM 38.9570 -84.0930 223° Southwest 483 556 27,200 1,860 Climbing FlightAware
11:52PM 38.8760 -84.1910 223° Southwest 490 564 29,800 1,860 Climbing FlightAware
11:53PM 38.8070 -84.2730 223° Southwest 485 558 30,100 180 Climbing FlightAware
11:54PM 38.7570 -84.3330 223° Southwest 485 558 30,100  Level FlightAware
11:55PM 38.6900 -84.4130 223° Southwest 485 558 30,100  Level FlightAware
11:55PM 38.6420 -84.4700 223° Southwest 485 558 30,100 4,620 Level FlightAware
11:56PM 38.5520 -84.5760 223° Southwest 482 555 36,000 4,260 Climbing FlightAware
11:57PM 38.4850 -84.6550 223° Southwest 449 517 36,000  Level FlightAware
11:57PM 38.4120 -84.7430 223° Southwest 457 526 36,000  Level FlightAware
11:58PM 38.3540 -84.8110 223° Southwest 459 528 36,000  Level FlightAware
11:59PM 38.2868 -84.8905 223° Southwest 464 534 36,000  Level FlightAware ADS-B
11:59PM 38.2181 -84.9701 222° Southwest 464 534 36,000  Level FlightAware ADS-B
12:00AM 38.1500 -85.0500 223° Southwest 464 534 36,000  Level FlightAware
12:01AM 38.0810 -85.1310 223° Southwest 464 534 36,000  Level FlightAware
12:01AM 38.0520 -85.1637 222° Southwest 464 534 36,000  Level FlightAware ADS-B
12:02AM 37.9450 -85.2880 223° Southwest 464 534 36,000  Level FlightAware
12:03AM 37.8810 -85.3630 223° Southwest 463 533 36,000  Level FlightAware
12:04AM 37.8190 -85.4350 223° Southwest 464 534 36,000  Level FlightAware
12:04AM 37.7570 -85.5060 222° Southwest 464 534 36,000  Level FlightAware
12:05AM 37.6940 -85.5770 222° Southwest 464 534 36,000  Level FlightAware
12:06AM 37.6280 -85.6530 222° Southwest 464 534 36,000  Level FlightAware
12:06AM 37.6064 -85.6770 221° Southwest 464 534 36,000  Level FlightAware ADS-B
12:06AM 37.5566 -85.7352 223° Southwest 464 534 36,000  Level FlightAware ADS-B
12:07AM 37.4940 -85.8061 222° Southwest 466 536 36,000  Level FlightAware ADS-B
12:08AM 37.4416 -85.8663 222° Southwest 467 537 36,000  Level FlightAware ADS-B
12:08AM 37.3930 -85.9209 222° Southwest 468 539 36,000  Level FlightAware ADS-B
12:09AM 37.3470 -85.9740 223° Southwest 469 540 36,000  Level FlightAware
12:09AM 37.3292 -85.9938 221° Southwest 469 540 36,000  Level FlightAware ADS-B
12:09AM 37.2780 -86.0505 221° Southwest 470 541 36,000  Level FlightAware ADS-B
12:10AM 37.2288 -86.1072 223° Southwest 472 543 36,000  Level FlightAware ADS-B
12:10AM 37.1781 -86.1637 222° Southwest 472 543 36,000  Level FlightAware ADS-B
12:11AM 37.1216 -86.2259 221° Southwest 473 544 36,000  Level FlightAware ADS-B
12:11AM 37.0699 -86.2847 222° Southwest 474 545 36,000  Level FlightAware ADS-B
12:12AM 37.0203 -86.3395 221° Southwest 474 545 36,000  Level FlightAware ADS-B
12:12AM 36.9709 -86.3962 223° Southwest 475 547 36,000  Level FlightAware ADS-B
12:13AM 36.9298 -86.4435 223° Southwest 477 549 36,000  Level FlightAware ADS-B
12:13AM 36.8883 -86.5010 228° Southwest 479 551 36,000  Level FlightAware ADS-B
12:14AM 36.8451 -86.5642 230° Southwest 479 551 36,000  Level FlightAware ADS-B
12:14AM 36.8021 -86.6298 231° Southwest 480 552 36,000  Level FlightAware ADS-B
12:15AM 36.7588 -86.6933 230° Southwest 481 554 36,000  Level FlightAware ADS-B
12:15AM 36.7142 -86.7589 230° Southwest 482 555 36,000  Level FlightAware ADS-B
12:16AM 36.6650 -86.8306 229° Southwest 477 549 36,000  Level FlightAware ADS-B
12:17AM 36.5880 -86.9440 230° Southwest 467 537 36,000  Level FlightAware
12:17AM 36.5300 -87.0280 229° Southwest 468 539 36,000 -120 Level FlightAware
12:18AM 36.4730 -87.1100 229° Southwest 469 540 35,900 -720 Descending FlightAware
12:19AM 36.4100 -87.2030 230° Southwest 471 542 35,000 -960 Descending FlightAware
12:20AM 36.3058 -87.3594 230° Southwest 484 557 34,000 -480 Descending Memphis Center
12:21AM 36.2192 -87.4833 229° Southwest 484 557 34,000 60 Level Memphis Center
12:27AM 35.8460 -88.0040 229° Southwest 473 544 34,400 60 Climbing FlightAware
12:27AM 35.7990 -88.0700 229° Southwest 473 544 34,400  Level FlightAware
12:28AM 35.7430 -88.1500 229° Southwest 473 544 34,400  Level FlightAware
12:29AM 35.6990 -88.2120 229° Southwest 473 544 34,400  Level FlightAware
12:29AM 35.6410 -88.2950 229° Southwest 473 544 34,400 -9,120 Level FlightAware
12:30AM 35.4428 -88.5528 229° Southwest 438 504 19,600 -9,300 Descending Memphis Center
12:31AM 35.3628 -88.6536 226° Southwest 422 486 17,400 -2,280 Descending Memphis Center
12:33AM 35.2150 -88.8397 226° Southwest 383 441 12,900 -2,220 Descending Memphis Center
12:34AM 35.1472 -88.9247 226° Southwest 369 425 10,900 -1,380 Descending Memphis Center
12:35AM 35.0856 -89.0069 228° Southwest 341 392 10,200 -840 Descending Memphis Center
12:36AM 35.0361 -89.0839 232° Southwest 301 346 9,300 -1,200 Descending Memphis Center
12:37AM 35.0372 -89.1803 271° West 277 319 7,900 -1,380 Descending Memphis Center
12:38AM 35.0403 -89.2867 272° West 282 325 6,600 -900 Descending Memphis Center
12:39AM 35.0431 -89.3706 272° West 267 307 6,100 -360 Descending Memphis Center
12:40AM 35.0458 -89.4517 272° West 248 285 5,900 -360 Descending Memphis Center
12:41AM 35.0483 -89.5353 272° West 243 280 5,400 -780 Descending Memphis Center
12:42AM 35.0508 -89.6139 272° West 243 280 4,400 -1,080 Descending Memphis Center
12:43AM 35.0514 -89.6950 271° West 243 280 3,300 -720 Descending Memphis Center
12:44AM 35.0561 -89.7736 274° West 238 274 3,000 -660 Descending Memphis Center
12:45AM 35.0564 -89.8447 270° West 225 259 2,000 -960 Descending Memphis Center
12:46AM 35.0500 -89.8833 259° West 194 223 1,500 -780 Descending KMEM
12:47AM 35.0500 -89.9333 270° West 126 145 700 -780 Descending KMEM
12:50AM 35.0333 -89.9667 270° West  Level FlightAware Approximate
12:57AM 35.0424 -89.9767 270° West  Level Estimated
12:58AM 35.0424 -89.9767 270° West  Level Estimated
12:59AM 35.0424 -89.9767 270° West  Level Estimated
01:00AM 35.0424 -89.9767 270° West  Level Estimated
01:01AM 35.0424 -89.9767 270° West  Level Estimated
01:02AM 35.0424 -89.9767 270° West  Level Estimated
01:03AM 35.0424 -89.9767 270° West  Level Estimated
01:04AM 35.0424 -89.9767 270° West  Level Estimated
01:05AM 35.0424 -89.9767 270° West  Level Estimated
01:06AM 35.0424 -89.9767 270° West  Level Estimated
01:07AM 35.0424 -89.9767 270° West  Level Estimated